»·PEaware :: N9510L KLAX-KSNA

N9510L :: KLAX-KSNA

FLIGHT INFORMATION

Flight Status: Arrived
Operator: Privately registered:
United States
More flights under this callsign
Pilot: Rich S. (24902)
Aircraft: CESSNA 172 SKYHAWK
(C172)
More flights by this aircraft type
Origin: KLAX Los Angeles Intl
United States
Destination: KSNA John Wayne-Orange Co
United States
More flights between these airports :: More routes between these airports
Route: +SLI8 SLI
File this flight plan on PilotEdge
Remarks:
Altitude:
(Current/Filed)
5,000ft
Speed:
(Current/Filed)
115kts
Departed: 22-May-20 08:42 AM
Arrived: 22-May-20 09:25 AM
Distance/Time
Traveled:
31nm/0:43
Distance/Time
To Go:
Arrived

Flight Plot

Page will automatically refresh every two minutes.


Map Options




Map Legend


Flown Route
Filed Route
Departure Airport
Arrival Airport
Navaid (VOR, NDB)
Fix

Horizontal Profiles

Position Reports

Time Latitude Longitude Heading Altitude Ground
Speed
22-May-20 08:02 33.933634 -118.399303 174 111ft 0kts
22-May-20 08:02 33.933634 -118.399303 174 111ft 0kts
22-May-20 08:04 33.933634 -118.399303 174 111ft 0kts
22-May-20 08:04 33.933634 -118.399303 174 111ft 0kts
22-May-20 08:05 33.933634 -118.399303 174 111ft 0kts
22-May-20 08:06 33.933634 -118.399303 174 111ft 0kts
22-May-20 08:07 33.933634 -118.399303 174 111ft 0kts
22-May-20 08:08 33.933634 -118.399303 174 111ft 0kts
22-May-20 08:09 33.933634 -118.399303 174 111ft 0kts
22-May-20 08:10 33.933634 -118.399303 174 111ft 0kts
22-May-20 08:11 33.933634 -118.399303 174 111ft 0kts
22-May-20 08:12 33.933634 -118.399303 174 111ft 0kts
22-May-20 08:13 33.933634 -118.399303 174 111ft 0kts
22-May-20 08:14 33.933634 -118.399303 174 111ft 0kts
22-May-20 08:15 33.933634 -118.399303 174 111ft 0kts
22-May-20 08:16 33.933634 -118.399303 174 111ft 0kts
22-May-20 08:17 33.933634 -118.399303 174 111ft 0kts
22-May-20 08:18 33.933634 -118.399303 174 111ft 0kts
22-May-20 08:19 33.933634 -118.399303 174 111ft 0kts
22-May-20 08:20 33.933634 -118.399303 174 111ft 0kts
22-May-20 08:21 33.933634 -118.399303 174 111ft 0kts
22-May-20 08:22 33.933634 -118.399303 174 111ft 0kts
22-May-20 08:23 33.933634 -118.399303 174 111ft 0kts
22-May-20 08:24 33.933634 -118.399303 174 111ft 0kts
22-May-20 08:25 33.933634 -118.399303 174 111ft 0kts
22-May-20 08:26 33.933634 -118.399303 174 111ft 0kts
22-May-20 08:27 33.933634 -118.399303 174 111ft 0kts
22-May-20 08:28 33.933621 -118.399301 172 111ft 3kts
22-May-20 08:29 33.933478 -118.398987 16 110ft 5kts
22-May-20 08:30 33.933838 -118.399441 302 111ft 2kts
22-May-20 08:31 33.933894 -118.398989 81 110ft 9kts
22-May-20 08:32 33.934076 -118.398188 5 109ft 3kts
22-May-20 08:33 33.934820 -118.395593 82 106ft 7kts
22-May-20 08:34 33.935179 -118.392074 82 102ft 18kts
22-May-20 08:35 33.935555 -118.388372 83 99ft 10kts
22-May-20 08:36 33.935870 -118.385389 84 99ft 7kts
22-May-20 08:37 33.936183 -118.383026 51 96ft 4kts
22-May-20 08:38 33.936292 -118.382892 36 96ft 0kts
22-May-20 08:39 33.936293 -118.382891 38 96ft 0kts
22-May-20 08:40 33.937224 -118.383167 288 96ft 10kts
22-May-20 08:41 33.935207 -118.402234 263 424ft 86kts
22-May-20 08:42 33.932979 -118.431557 240 1230ft 82kts
22-May-20 08:43 33.916471 -118.452712 208 1928ft 86kts
22-May-20 08:44 33.897753 -118.470020 192 2676ft 80kts
22-May-20 08:45 33.875193 -118.466812 173 3281ft 86kts
22-May-20 08:46 33.851501 -118.463349 173 3906ft 84kts
22-May-20 08:47 33.824098 -118.459500 169 4098ft 110kts
22-May-20 08:48 33.793560 -118.456099 172 3908ft 107kts
22-May-20 08:49 33.764931 -118.447817 160 3833ft 101kts
22-May-20 08:50 33.746072 -118.426811 95 3995ft 102kts
22-May-20 08:51 33.747757 -118.390465 93 4059ft 109kts
22-May-20 08:52 33.748838 -118.352102 92 4044ft 115kts
22-May-20 08:53 33.747456 -118.314311 92 4173ft 107kts
22-May-20 08:54 33.749278 -118.276225 92 4080ft 121kts
22-May-20 08:55 33.748132 -118.235819 98 3945ft 119kts
22-May-20 08:56 33.749165 -118.195922 78 3804ft 122kts
22-May-20 08:57 33.760814 -118.158521 69 4085ft 117kts
22-May-20 08:58 33.771416 -118.119883 89 3906ft 128kts
22-May-20 08:59 33.774146 -118.082991 76 3965ft 106kts
22-May-20 09:00 33.785126 -118.049900 51 3945ft 102kts
22-May-20 09:01 33.801525 -118.018899 65 3921ft 111kts
22-May-20 09:02 33.813513 -117.984786 73 4140ft 115kts
22-May-20 09:03 33.829044 -117.947970 64 4071ft 125kts
22-May-20 09:04 33.844038 -117.910652 67 4037ft 126kts
22-May-20 09:05 33.857970 -117.875666 65 3915ft 114kts
22-May-20 09:06 33.872117 -117.842706 67 3957ft 108kts
22-May-20 09:07 33.884276 -117.810432 72 4006ft 115kts
22-May-20 09:08 33.895469 -117.776412 69 3952ft 100kts
22-May-20 09:09 33.908510 -117.748121 61 3981ft 99kts
22-May-20 09:10 33.921739 -117.717897 56 4124ft 104kts
22-May-20 09:11 33.946731 -117.697569 18 4095ft 116kts
22-May-20 09:12 33.970638 -117.702685 249 4082ft 100kts
22-May-20 09:13 33.942567 -117.705433 178 4184ft 91kts
22-May-20 09:14 33.915815 -117.713593 212 3822ft 88kts
22-May-20 09:15 33.895779 -117.730555 217 3864ft 88kts
22-May-20 09:16 33.873359 -117.743215 197 3631ft 96kts
22-May-20 09:17 33.847975 -117.758102 197 3213ft 107kts
22-May-20 09:18 33.823109 -117.775685 214 3046ft 110kts
22-May-20 09:19 33.795393 -117.791664 205 2788ft 107kts
22-May-20 09:20 33.766801 -117.810421 206 2163ft 125kts
22-May-20 09:21 33.737798 -117.831261 196 1153ft 105kts
22-May-20 09:22 33.711774 -117.845839 203 725ft 92kts
22-May-20 09:23 33.692279 -117.858266 203 450ft 76kts
22-May-20 09:24 33.677379 -117.867673 221 60ft 1kts
22-May-20 09:25 33.675993 -117.869833 293 60ft 0kts
22-May-20 09:26 33.676028 -117.869953 290 60ft 0kts
22-May-20 09:27 33.676028 -117.869953 290 60ft 0kts
22-May-20 09:28 33.676289 -117.870705 294 60ft 0kts
22-May-20 09:29 33.676289 -117.870705 294 60ft 0kts

Navigation Log

Ident Type
Flight plan parsing failed, navigation log unavailable